Time;durP1;ratioP1;P1;durP2;ratioP2;P2;SDS_P1;SDS_P2;PMS_P1;PMS_P2;Temp;Humidity;BMP_temperature;BMP_pressure;BME280_temperature;BME280_humidity;BME280_pressure;Samples;Min_cycle;Max_cycle;Signal;HPM_P1;HPM_P2
2023/01/15 00:00:56;;;;;;;1.83;0.47;;;9.40;99.90;;;;;;5035041;28;20120;-67
2023/01/15 00:03:22;;;;;;;0.90;0.20;;;9.30;99.90;;;;;;5036236;28;20117;-67
2023/01/15 00:05:47;;;;;;;0.88;0.20;;;9.20;99.90;;;;;;5035073;28;20029;-67
2023/01/15 00:08:13;;;;;;;2.03;0.30;;;9.10;99.90;;;;;;5067594;22;20076;-70
2023/01/15 00:10:38;;;;;;;0.50;0.20;;;9.10;99.90;;;;;;5055302;28;20029;-70
2023/01/15 00:13:04;;;;;;;0.50;0.45;;;9.10;99.90;;;;;;5054501;28;20025;-69
2023/01/15 00:15:30;;;;;;;0.50;0.38;;;9.00;99.90;;;;;;5054568;28;20025;-69
2023/01/15 00:17:55;;;;;;;0.08;0.08;;;9.00;99.90;;;;;;5054909;28;20025;-69
2023/01/15 00:20:21;;;;;;;0.20;0.20;;;8.90;99.90;;;;;;5055385;28;20032;-69
2023/01/15 00:22:46;;;;;;;1.95;0.32;;;8.90;99.90;;;;;;5055697;28;20036;-69
2023/01/15 00:27:56;;;;;;;2.45;0.95;;;8.90;99.90;;;;;;5056187;28;20155;-69
2023/01/15 00:30:23;;;;;;;1.35;0.70;;;8.90;99.90;;;;;;5055580;28;20104;-69
2023/01/15 00:32:48;;;;;;;2.38;0.70;;;8.90;99.90;;;;;;5055513;28;20021;-69
2023/01/15 00:35:17;;;;;;;1.02;0.43;;;8.90;99.90;;;;;;5054314;28;20047;-69
2023/01/15 00:37:43;;;;;;;1.23;0.20;;;8.90;99.90;;;;;;5054207;28;20017;-69
2023/01/15 00:40:09;;;;;;;0.95;0.30;;;8.90;99.90;;;;;;5055787;28;20017;-69
2023/01/15 00:42:35;;;;;;;1.00;0.30;;;8.90;99.90;;;;;;5055678;28;20021;-70
2023/01/15 00:45:08;;;;;;;0.77;0.28;;;8.90;99.90;;;;;;5055337;28;20122;-70
2023/01/15 00:47:38;;;;;;;1.67;0.60;;;8.90;99.90;;;;;;5054059;28;20071;-70
2023/01/15 00:50:05;;;;;;;0.40;0.30;;;8.90;99.90;;;;;;5053948;28;20165;-70
2023/01/15 00:52:31;;;;;;;0.82;0.30;;;8.90;99.90;;;;;;5054089;28;20025;-70
2023/01/15 00:54:56;;;;;;;0.28;0.20;;;8.90;99.90;;;;;;5053864;28;20127;-70
2023/01/15 00:57:22;;;;;;;0.50;0.30;;;8.90;99.90;;;;;;5054957;28;20025;-70
2023/01/15 00:59:47;;;;;;;0.55;0.30;;;8.90;99.90;;;;;;5053845;28;20021;-70
2023/01/15 01:02:13;;;;;;;1.10;0.40;;;8.90;99.90;;;;;;5053798;28;20028;-70
2023/01/15 01:04:38;;;;;;;0.57;0.30;;;8.90;99.90;;;;;;5053603;28;20062;-70
2023/01/15 01:07:04;;;;;;;4.38;0.95;;;8.90;99.90;;;;;;5054603;28;20112;-70
2023/01/15 01:09:30;;;;;;;1.17;0.52;;;8.90;99.90;;;;;;5055210;28;20468;-70
2023/01/15 01:11:55;;;;;;;0.55;0.50;;;8.90;99.90;;;;;;5055223;28;20025;-70
2023/01/15 01:14:22;;;;;;;0.20;0.20;;;8.90;99.90;;;;;;5054336;28;20033;-70
2023/01/15 01:16:47;;;;;;;1.10;0.60;;;8.90;99.90;;;;;;5053772;28;20036;-70
2023/01/15 01:19:16;;;;;;;1.75;0.35;;;8.90;99.90;;;;;;5054386;28;20028;-70
2023/01/15 01:21:42;;;;;;;0.75;0.50;;;8.90;99.90;;;;;;5053463;28;20020;-70
2023/01/15 01:24:10;;;;;;;2.15;1.08;;;8.90;99.90;;;;;;5053584;28;20025;-70
2023/01/15 01:26:36;;;;;;;1.63;0.77;;;8.80;99.90;;;;;;5053096;28;20333;-70
2023/01/15 01:29:02;;;;;;;1.67;0.68;;;8.80;99.90;;;;;;5053044;28;20028;-70
2023/01/15 01:31:28;;;;;;;1.80;0.70;;;8.80;99.90;;;;;;5054484;28;20434;-70
2023/01/15 01:33:56;;;;;;;1.42;0.45;;;8.70;99.90;;;;;;5054565;28;20033;-70
2023/01/15 01:36:33;;;;;;;1.65;0.80;;;8.70;99.90;;;;;;5054816;28;20025;-70
2023/01/15 01:38:59;;;;;;;1.23;0.32;;;8.60;99.90;;;;;;5054354;28;20100;-70
2023/01/15 01:41:26;;;;;;;0.35;0.30;;;8.60;99.90;;;;;;5054383;28;20025;-70
2023/01/15 01:43:56;;;;;;;0.30;0.30;;;8.60;99.90;;;;;;5054151;28;20035;-70
2023/01/15 01:46:22;;;;;;;0.28;0.20;;;8.50;99.90;;;;;;5054540;28;20043;-70
2023/01/15 01:48:50;;;;;;;0.55;0.35;;;8.50;99.90;;;;;;5054151;28;20036;-70
2023/01/15 01:51:18;;;;;;;1.10;0.10;;;8.40;99.90;;;;;;5052685;28;20021;-70
2023/01/15 01:53:44;;;;;;;0.47;0.28;;;8.30;99.90;;;;;;5052957;28;20021;-69
2023/01/15 01:56:10;;;;;;;0.05;0.05;;;8.00;99.90;;;;;;5053012;28;20036;-69
2023/01/15 01:58:37;;;;;;;0.03;0.03;;;7.80;99.90;;;;;;5052595;28;20021;-69
2023/01/15 02:01:03;;;;;;;0.68;0.30;;;7.90;99.90;;;;;;5053972;28;20025;-70
2023/01/15 02:03:35;;;;;;;0.20;0.20;;;7.80;99.90;;;;;;5054097;28;20159;-70
2023/01/15 02:06:05;;;;;;;0.10;0.10;;;7.80;99.90;;;;;;5052655;28;20021;-70
2023/01/15 02:08:31;;;;;;;1.10;0.10;;;7.80;99.90;;;;;;5051607;28;20036;-70
2023/01/15 02:10:57;;;;;;;0.40;0.15;;;7.80;99.90;;;;;;5053982;28;20098;-70
2023/01/15 02:13:45;;;;;;;0.93;0.00;;;7.90;99.90;;;;;;5053694;28;20044;-70
2023/01/15 02:16:21;;;;;;;0.10;0.10;;;7.80;99.90;;;;;;5052639;28;20505;-70
2023/01/15 02:19:08;;;;;;;0.45;0.22;;;7.70;99.90;;;;;;5053518;28;20028;-70
2023/01/15 02:21:49;;;;;;;0.22;0.10;;;7.70;99.90;;;;;;5053935;28;20060;-70
2023/01/15 02:24:53;;;;;;;1.38;0.28;;;7.60;99.90;;;;;;5052503;28;20078;-70
2023/01/15 02:27:21;;;;;;;2.15;0.30;;;7.50;99.90;;;;;;5044490;28;20128;-70
2023/01/15 02:30:07;;;;;;;1.67;0.10;;;7.50;99.90;;;;;;5053475;28;20048;-70
2023/01/15 02:32:48;;;;;;;1.08;0.00;;;7.50;99.90;;;;;;5053686;28;20096;-70
2023/01/15 02:35:22;;;;;;;0.10;0.00;;;7.40;99.90;;;;;;5053448;28;20388;-70
2023/01/15 02:37:55;;;;;;;0.10;0.00;;;7.40;99.90;;;;;;5053803;28;20033;-70
2023/01/15 02:40:23;;;;;;;0.55;0.10;;;7.30;99.90;;;;;;5053341;28;20074;-70
2023/01/15 02:42:49;;;;;;;0.10;0.10;;;7.30;99.90;;;;;;5052243;28;20017;-70
2023/01/15 02:45:23;;;;;;;0.00;0.00;;;7.20;99.90;;;;;;5052537;28;20029;-70
2023/01/15 02:47:53;;;;;;;0.00;0.00;;;7.20;99.90;;;;;;5053230;28;20096;-70
2023/01/15 02:50:24;;;;;;;0.20;0.10;;;7.20;99.90;;;;;;5053559;28;20029;-70
2023/01/15 02:52:55;;;;;;;0.00;0.00;;;7.30;99.90;;;;;;5051878;28;20127;-69
2023/01/15 02:55:25;;;;;;;0.10;0.10;;;7.20;99.90;;;;;;5053030;28;20032;-70
2023/01/15 02:57:54;;;;;;;0.03;0.03;;;7.30;99.90;;;;;;5051845;28;20032;-70
2023/01/15 03:00:21;;;;;;;0.00;0.00;;;7.30;99.90;;;;;;5052130;28;20048;-70
2023/01/15 03:02:54;;;;;;;0.00;0.00;;;7.30;99.90;;;;;;5051755;28;20021;-70
2023/01/15 03:05:26;;;;;;;0.52;0.08;;;7.30;99.90;;;;;;5053030;28;20032;-70
2023/01/15 03:07:56;;;;;;;0.00;0.00;;;7.20;99.90;;;;;;5051833;28;20033;-69
2023/01/15 03:10:31;;;;;;;0.85;0.17;;;7.20;99.90;;;;;;5051797;28;20021;-70
2023/01/15 03:13:03;;;;;;;0.10;0.10;;;7.20;99.90;;;;;;5053372;28;20024;-70
2023/01/15 03:18:39;;;;;;;0.10;0.10;;;7.10;99.90;;;;;;5053535;28;20087;-70
2023/01/15 03:21:12;;;;;;;0.20;0.20;;;7.00;99.90;;;;;;5055585;28;20021;-70
2023/01/15 03:23:42;;;;;;;1.40;0.17;;;6.90;99.90;;;;;;5055600;28;20044;-70
2023/01/15 03:26:07;;;;;;;0.10;0.10;;;6.70;99.90;;;;;;5055658;28;20095;-70
2023/01/15 03:28:36;;;;;;;0.43;0.28;;;6.80;99.90;;;;;;5055540;28;20021;-70
2023/01/15 03:31:02;;;;;;;0.20;0.10;;;6.80;99.90;;;;;;5057001;28;20361;-70
2023/01/15 03:33:28;;;;;;;0.10;0.10;;;6.80;99.90;;;;;;5055761;28;20028;-70
2023/01/15 03:35:57;;;;;;;0.17;0.10;;;6.70;99.90;;;;;;5056921;28;20052;-70
2023/01/15 03:38:29;;;;;;;0.35;0.20;;;6.70;99.90;;;;;;5055245;28;20024;-70
2023/01/15 03:41:17;;;;;;;0.10;0.10;;;6.70;99.90;;;;;;5055260;28;20025;-70
2023/01/15 03:44:24;;;;;;;0.03;0.00;;;6.70;99.90;;;;;;5055634;28;20079;-70
2023/01/15 03:47:04;;;;;;;1.08;0.10;;;6.90;99.90;;;;;;5055170;28;20114;-70
2023/01/15 03:49:41;;;;;;;1.55;0.20;;;7.00;99.90;;;;;;5056641;28;20025;-70
2023/01/15 03:52:22;;;;;;;0.10;0.10;;;7.20;99.90;;;;;;5056820;28;20025;-70
2023/01/15 03:55:03;;;;;;;2.08;0.10;;;7.30;99.90;;;;;;5055136;28;20039;-70
2023/01/15 03:57:44;;;;;;;0.45;0.05;;;7.30;99.90;;;;;;5055046;28;20028;-70
2023/01/15 04:00:34;;;;;;;0.57;0.20;;;7.30;99.90;;;;;;5054995;28;20025;-70
2023/01/15 04:03:02;;;;;;;0.10;0.10;;;7.30;99.90;;;;;;5051560;28;20040;-70
2023/01/15 04:05:29;;;;;;;0.95;0.20;;;7.30;99.90;;;;;;5056116;28;20021;-70
2023/01/15 04:07:56;;;;;;;2.20;0.22;;;7.40;99.90;;;;;;5056021;28;20044;-70
2023/01/15 04:10:22;;;;;;;1.27;0.10;;;7.40;99.90;;;;;;5055977;28;20096;-70
2023/01/15 04:12:48;;;;;;;0.50;0.15;;;7.40;99.90;;;;;;5055093;28;20059;-70
2023/01/15 04:15:14;;;;;;;0.00;0.00;;;7.30;99.90;;;;;;5054986;28;20029;-70
2023/01/15 04:17:40;;;;;;;0.30;0.10;;;7.30;99.90;;;;;;5054498;28;20029;-70
2023/01/15 04:20:06;;;;;;;0.47;0.15;;;7.30;99.90;;;;;;5054865;28;20121;-70
2023/01/15 04:22:32;;;;;;;0.10;0.10;;;7.30;99.90;;;;;;5054297;28;20057;-70
2023/01/15 04:24:57;;;;;;;0.35;0.20;;;7.30;99.90;;;;;;5055005;28;20033;-70
2023/01/15 04:27:23;;;;;;;0.00;0.00;;;7.30;99.90;;;;;;5056084;28;20028;-70
2023/01/15 04:29:49;;;;;;;0.20;0.10;;;7.20;99.90;;;;;;5054198;28;20021;-70
2023/01/15 04:32:14;;;;;;;0.52;0.13;;;7.20;99.90;;;;;;5055085;28;20051;-70
2023/01/15 04:34:40;;;;;;;0.10;0.08;;;7.10;99.90;;;;;;5054539;28;20082;-69
2023/01/15 04:37:05;;;;;;;0.10;0.00;;;7.10;99.90;;;;;;5055676;28;20433;-69
2023/01/15 04:39:31;;;;;;;3.10;0.35;;;7.10;99.90;;;;;;5054179;28;20028;-69
2023/01/15 04:44:41;;;;;;;0.20;0.00;;;6.90;99.90;;;;;;5055565;28;20044;-69
2023/01/15 04:47:06;;;;;;;2.30;0.13;;;7.00;99.90;;;;;;5053998;28;20021;-69
2023/01/15 04:49:33;;;;;;;0.10;0.10;;;7.00;99.90;;;;;;5053992;28;20029;-70
2023/01/15 04:51:59;;;;;;;4.55;0.30;;;7.00;99.90;;;;;;5055288;28;20033;-70
2023/01/15 04:54:24;;;;;;;0.50;0.20;;;6.90;99.90;;;;;;5055731;28;20040;-70
2023/01/15 04:56:52;;;;;;;0.10;0.10;;;6.90;99.90;;;;;;5053969;28;20048;-69
2023/01/15 04:59:21;;;;;;;0.40;0.10;;;6.90;99.90;;;;;;5053672;28;20032;-70
2023/01/15 05:01:47;;;;;;;3.47;0.05;;;6.90;99.90;;;;;;5055048;28;20032;-70
2023/01/15 05:04:12;;;;;;;0.95;0.15;;;6.90;99.90;;;;;;5054451;28;20021;-70
2023/01/15 05:06:38;;;;;;;0.20;0.20;;;6.90;99.90;;;;;;5054914;28;20090;-70
2023/01/15 05:09:04;;;;;;;0.38;0.20;;;6.90;99.90;;;;;;5055151;28;20029;-70
2023/01/15 05:11:33;;;;;;;1.00;0.30;;;6.80;99.90;;;;;;5054847;28;20021;-69
2023/01/15 05:13:58;;;;;;;0.20;0.13;;;6.70;99.90;;;;;;5054806;28;20057;-69
2023/01/15 05:16:26;;;;;;;0.10;0.10;;;6.70;99.90;;;;;;5055201;28;20056;-69
2023/01/15 05:18:53;;;;;;;0.77;0.10;;;6.70;99.90;;;;;;5053388;28;20032;-69
2023/01/15 05:21:23;;;;;;;0.47;0.13;;;6.60;99.90;;;;;;5055252;28;20102;-69
2023/01/15 05:23:51;;;;;;;3.15;0.57;;;6.60;99.90;;;;;;5053220;28;20033;-69
2023/01/15 05:26:17;;;;;;;1.75;0.38;;;6.50;99.90;;;;;;5053365;28;20053;-69
2023/01/15 05:28:44;;;;;;;0.57;0.17;;;6.40;99.90;;;;;;5054549;28;20079;-69
2023/01/15 05:31:13;;;;;;;2.13;0.40;;;6.40;99.90;;;;;;5053916;28;20036;-69
2023/01/15 05:33:38;;;;;;;0.00;0.00;;;6.30;99.90;;;;;;5054735;28;20033;-69
2023/01/15 05:36:10;;;;;;;0.32;0.17;;;6.30;99.90;;;;;;5053496;28;20031;-69
2023/01/15 05:38:36;;;;;;;0.43;0.15;;;6.30;99.90;;;;;;5053441;28;20028;-69
2023/01/15 05:41:47;;;;;;;0.00;0.00;;;6.30;99.90;;;;;;5054349;28;20036;-69
2023/01/15 05:43:55;;;;;;;2.15;0.52;;;6.20;99.90;;;;;;5053302;28;20025;-69
2023/01/15 05:46:21;;;;;;;1.67;0.10;;;6.10;99.90;;;;;;5053832;28;20407;-69
2023/01/15 05:48:47;;;;;;;0.55;0.20;;;6.10;99.90;;;;;;5052915;28;20155;-69
2023/01/15 05:51:13;;;;;;;0.80;0.20;;;6.10;99.90;;;;;;5054222;28;20056;-69
2023/01/15 05:53:38;;;;;;;0.10;0.10;;;6.20;99.90;;;;;;5054306;28;20036;-69
2023/01/15 05:56:05;;;;;;;2.45;0.10;;;6.30;99.90;;;;;;5052687;28;20021;-69
2023/01/15 05:58:30;;;;;;;1.55;0.20;;;6.30;99.90;;;;;;5052708;28;20025;-69
2023/01/15 06:00:57;;;;;;;0.50;0.17;;;6.30;99.90;;;;;;5053920;28;20040;-69
2023/01/15 06:03:24;;;;;;;0.10;0.10;;;6.40;99.90;;;;;;5053801;28;20025;-69
2023/01/15 06:05:53;;;;;;;0.13;0.03;;;6.40;99.90;;;;;;5054257;28;20013;-69
2023/01/15 06:08:20;;;;;;;0.20;0.20;;;6.40;99.90;;;;;;5053098;28;20037;-71
2023/01/15 06:10:47;;;;;;;1.15;0.10;;;6.40;99.90;;;;;;5052457;28;20051;-71
2023/01/15 06:13:13;;;;;;;1.25;0.20;;;6.40;99.90;;;;;;5052963;28;20024;-71
2023/01/15 06:15:39;;;;;;;0.10;0.10;;;6.40;99.90;;;;;;5053883;28;20033;-71
2023/01/15 06:18:04;;;;;;;0.30;0.10;;;6.40;99.90;;;;;;5053781;28;20101;-71
2023/01/15 06:20:30;;;;;;;1.02;0.10;;;6.20;99.90;;;;;;5052238;28;20028;-71
2023/01/15 06:22:56;;;;;;;0.57;0.10;;;6.00;99.90;;;;;;5053340;28;20054;-71
2023/01/15 06:25:21;;;;;;;0.52;0.20;;;5.90;99.90;;;;;;5052171;28;20484;-71
2023/01/15 06:27:48;;;;;;;0.17;0.10;;;5.70;99.90;;;;;;5052764;28;20024;-71
2023/01/15 06:30:14;;;;;;;0.32;0.13;;;5.70;99.90;;;;;;5052243;28;20104;-71
2023/01/15 06:32:40;;;;;;;2.08;0.20;;;5.70;99.90;;;;;;5052510;28;20024;-71
2023/01/15 06:35:06;;;;;;;0.30;0.10;;;5.70;99.90;;;;;;5052316;28;20029;-71
2023/01/15 06:37:31;;;;;;;0.65;0.20;;;5.80;99.90;;;;;;5051996;28;20025;-71
2023/01/15 06:39:57;;;;;;;1.55;0.28;;;5.70;99.90;;;;;;5053196;28;20032;-71
2023/01/15 06:47:56;;;;;;;0.38;0.10;;;5.80;99.90;;;;;;5053798;28;20087;-71
2023/01/15 06:50:23;;;;;;;0.35;0.20;;;5.80;99.90;;;;;;5053050;28;20032;-71
2023/01/15 06:52:48;;;;;;;0.73;0.10;;;5.80;99.90;;;;;;5052703;28;20092;-71
2023/01/15 06:55:14;;;;;;;0.00;0.00;;;5.80;99.90;;;;;;5053064;28;20112;-71
2023/01/15 06:57:40;;;;;;;2.75;0.52;;;5.90;99.90;;;;;;5051765;28;20031;-70
2023/01/15 07:00:10;;;;;;;0.35;0.15;;;5.90;99.90;;;;;;5053298;28;20029;-71
2023/01/15 07:02:35;;;;;;;0.17;0.10;;;5.90;99.90;;;;;;5052974;28;20112;-71
2023/01/15 07:05:01;;;;;;;1.23;0.25;;;5.90;99.90;;;;;;5051718;28;20112;-71
2023/01/15 07:07:28;;;;;;;0.17;0.10;;;5.80;99.90;;;;;;5052904;28;20109;-71
2023/01/15 07:09:54;;;;;;;1.08;0.32;;;5.80;99.90;;;;;;5051767;28;20051;-71
2023/01/15 07:12:20;;;;;;;0.32;0.10;;;5.80;99.90;;;;;;5052504;28;20021;-71
2023/01/15 07:14:45;;;;;;;1.55;0.20;;;5.80;99.90;;;;;;5052425;28;20048;-71
2023/01/15 07:17:11;;;;;;;3.40;0.30;;;5.80;99.90;;;;;;5052544;28;20048;-71
2023/01/15 07:19:37;;;;;;;0.85;0.20;;;5.70;99.90;;;;;;5052714;28;20112;-71
2023/01/15 07:22:03;;;;;;;5.22;0.15;;;5.70;99.90;;;;;;5053522;28;20029;-71
2023/01/15 07:24:29;;;;;;;1.90;0.20;;;5.70;99.90;;;;;;5053070;28;20079;-70
2023/01/15 07:26:55;;;;;;;0.82;0.38;;;5.70;99.90;;;;;;5052078;28;20029;-71
2023/01/15 07:29:20;;;;;;;0.98;0.20;;;5.60;99.90;;;;;;5052223;28;20049;-70
2023/01/15 07:31:46;;;;;;;0.93;0.20;;;5.60;99.90;;;;;;5052659;28;20107;-70
2023/01/15 07:34:12;;;;;;;1.95;0.30;;;5.50;99.90;;;;;;5053376;28;20021;-71
2023/01/15 07:36:37;;;;;;;2.50;0.32;;;5.50;99.90;;;;;;5051502;28;20033;-71
2023/01/15 07:39:04;;;;;;;1.00;0.22;;;5.50;99.90;;;;;;5052699;28;20033;-71
2023/01/15 07:49:47;;;;;;;1.67;0.10;;;5.40;99.90;;;;;;5052939;28;20035;-71
2023/01/15 07:52:17;;;;;;;1.88;0.20;;;5.30;99.90;;;;;;5051429;28;20021;-71
2023/01/15 07:54:44;;;;;;;1.27;0.03;;;5.20;99.90;;;;;;5051328;28;20083;-71
2023/01/15 07:57:12;;;;;;;0.80;0.28;;;5.30;99.90;;;;;;5051298;28;20032;-70
2023/01/15 07:59:38;;;;;;;0.52;0.20;;;5.30;99.90;;;;;;5051301;28;20021;-71
2023/01/15 08:02:03;;;;;;;0.20;0.20;;;5.30;99.90;;;;;;5051189;28;20021;-71
2023/01/15 08:04:29;;;;;;;0.10;0.10;;;5.20;99.90;;;;;;5051931;28;20025;-71
2023/01/15 08:06:55;;;;;;;0.75;0.00;;;5.30;99.90;;;;;;5053693;28;20021;-71
2023/01/15 08:09:20;;;;;;;0.75;0.20;;;5.20;99.90;;;;;;5054726;28;20021;-71
2023/01/15 08:17:14;;;;;;;0.00;0.00;;;5.10;99.90;;;;;;5056184;28;20031;-71
2023/01/15 08:19:39;;;;;;;1.65;0.10;;;5.10;99.90;;;;;;5054611;28;20029;-71
2023/01/15 08:22:05;;;;;;;0.10;0.10;;;5.00;99.90;;;;;;5054555;28;20372;-71
2023/01/15 08:24:30;;;;;;;3.38;1.15;;;5.00;99.90;;;;;;5054824;28;20021;-71
2023/01/15 08:26:56;;;;;;;2.72;0.00;;;5.00;99.90;;;;;;5054299;28;20151;-70
2023/01/15 08:29:21;;;;;;;0.85;0.08;;;5.00;99.90;;;;;;5054611;28;20029;-71
2023/01/15 08:31:47;;;;;;;2.55;0.20;;;5.10;99.90;;;;;;5055502;28;20020;-71
2023/01/15 08:34:13;;;;;;;0.20;0.03;;;5.00;99.90;;;;;;5055471;28;20078;-71
2023/01/15 08:36:39;;;;;;;0.65;0.20;;;5.00;99.90;;;;;;5055600;28;20140;-71
2023/01/15 08:39:04;;;;;;;0.15;0.15;;;5.00;99.90;;;;;;5055386;28;20423;-71
2023/01/15 08:41:30;;;;;;;0.10;0.10;;;5.00;99.90;;;;;;5054254;28;20036;-71
2023/01/15 08:43:56;;;;;;;1.30;0.10;;;5.10;99.90;;;;;;5054605;28;20112;-71
2023/01/15 08:46:22;;;;;;;0.40;0.10;;;5.20;99.90;;;;;;5054123;28;20108;-71
2023/01/15 08:48:48;;;;;;;1.55;0.20;;;5.20;99.90;;;;;;5055429;28;20031;-71
2023/01/15 08:51:14;;;;;;;0.75;0.15;;;5.20;99.90;;;;;;5053961;28;20017;-71
2023/01/15 08:53:40;;;;;;;0.10;0.00;;;5.30;99.90;;;;;;5053967;28;20028;-71
2023/01/15 08:56:13;;;;;;;0.17;0.10;;;5.30;99.90;;;;;;5055501;28;20480;-71
2023/01/15 08:58:39;;;;;;;0.70;0.13;;;5.30;99.90;;;;;;5054036;28;20029;-71
2023/01/15 09:01:06;;;;;;;0.15;0.10;;;5.40;99.90;;;;;;5053655;28;20075;-71
2023/01/15 09:03:32;;;;;;;0.63;0.15;;;5.40;99.90;;;;;;5054828;28;20025;-71
2023/01/15 09:05:59;;;;;;;0.60;0.20;;;5.50;99.90;;;;;;5054468;28;20052;-71
2023/01/15 09:08:25;;;;;;;0.20;0.15;;;5.50;99.90;;;;;;5053512;28;20033;-71
2023/01/15 09:10:59;;;;;;;0.40;0.30;;;5.40;99.90;;;;;;5054910;28;20040;-71
2023/01/15 09:13:25;;;;;;;0.08;0.08;;;5.40;99.90;;;;;;5053626;28;20071;-71
2023/01/15 09:15:50;;;;;;;0.40;0.30;;;5.40;99.90;;;;;;5055017;28;20057;-71
2023/01/15 09:18:18;;;;;;;1.55;0.30;;;5.50;99.90;;;;;;5054611;28;20025;-71
2023/01/15 09:20:44;;;;;;;0.80;0.20;;;5.50;99.90;;;;;;5054798;28;20561;-71
2023/01/15 09:23:10;;;;;;;0.57;0.10;;;5.60;99.90;;;;;;5054803;28;20050;-71
2023/01/15 09:25:35;;;;;;;0.20;0.20;;;5.60;99.90;;;;;;5053647;28;20116;-71
2023/01/15 09:28:04;;;;;;;0.30;0.10;;;5.60;99.90;;;;;;5053898;28;20107;-71
2023/01/15 09:30:29;;;;;;;0.17;0.15;;;5.60;99.90;;;;;;5055333;28;20017;-71
2023/01/15 09:32:55;;;;;;;1.08;0.35;;;5.60;99.90;;;;;;5054471;28;20044;-71
2023/01/15 09:35:21;;;;;;;0.30;0.20;;;5.70;99.90;;;;;;5053161;28;20033;-70
2023/01/15 09:37:52;;;;;;;0.45;0.20;;;5.70;99.90;;;;;;5054472;28;20506;-70
2023/01/15 09:40:37;;;;;;;0.13;0.10;;;5.70;99.90;;;;;;5053632;28;20029;-71
2023/01/15 09:43:23;;;;;;;0.55;0.20;;;5.70;99.90;;;;;;5053820;28;20108;-71
2023/01/15 09:46:07;;;;;;;0.30;0.20;;;5.70;99.90;;;;;;5054541;28;20021;-71
2023/01/15 09:48:42;;;;;;;0.90;0.30;;;5.70;99.90;;;;;;5054158;28;20025;-72
2023/01/15 09:51:21;;;;;;;0.20;0.17;;;5.70;99.90;;;;;;5052899;28;20048;-70
2023/01/15 09:54:04;;;;;;;2.15;0.40;;;5.70;99.90;;;;;;5053013;28;20051;-72
2023/01/15 09:56:32;;;;;;;2.95;0.17;;;5.60;99.90;;;;;;5054298;28;20031;-72
2023/01/15 09:59:00;;;;;;;0.20;0.20;;;5.60;99.90;;;;;;5052752;28;20024;-71
2023/01/15 10:01:31;;;;;;;1.25;0.25;;;5.70;99.90;;;;;;5052733;28;20040;-71
2023/01/15 10:04:40;;;;;;;2.07;0.40;;;5.80;99.90;;;;;;5052668;28;20028;-71
2023/01/15 10:07:21;;;;;;;1.00;0.20;;;5.80;99.90;;;;;;5034860;28;20164;-71
2023/01/15 10:09:54;;;;;;;0.75;0.25;;;5.80;99.90;;;;;;5036215;28;20059;-71
2023/01/15 10:12:34;;;;;;;0.20;0.20;;;5.90;99.90;;;;;;5015351;28;20036;-72
2023/01/15 10:15:16;;;;;;;1.10;0.30;;;6.00;99.90;;;;;;5031608;28;20108;-71
2023/01/15 10:17:47;;;;;;;1.58;0.43;;;6.00;99.90;;;;;;5031766;28;20504;-71
2023/01/15 10:20:34;;;;;;;1.33;0.47;;;6.10;99.90;;;;;;5031889;28;20025;-71
2023/01/15 10:23:12;;;;;;;0.93;0.73;;;6.10;99.90;;;;;;5031695;28;20469;-71
2023/01/15 10:25:48;;;;;;;0.40;0.20;;;6.10;99.90;;;;;;5031656;28;20030;-71
2023/01/15 10:28:29;;;;;;;0.80;0.45;;;6.10;99.90;;;;;;5030860;28;20048;-72
2023/01/15 10:30:58;;;;;;;1.40;0.30;;;6.10;99.90;;;;;;5015102;28;20025;-71
2023/01/15 10:33:29;;;;;;;1.13;0.40;;;6.10;99.90;;;;;;5014930;28;20264;-70
2023/01/15 10:36:06;;;;;;;4.25;0.30;;;6.10;99.90;;;;;;5031419;28;20021;-71
2023/01/15 10:38:36;;;;;;;0.93;0.30;;;6.10;99.90;;;;;;5031549;28;20026;-71
2023/01/15 10:41:28;;;;;;;2.15;0.50;;;6.10;99.90;;;;;;5014695;28;20021;-71
2023/01/15 10:44:22;;;;;;;0.30;0.17;;;6.00;99.90;;;;;;5025935;28;20034;-71
2023/01/15 10:46:59;;;;;;;0.45;0.30;;;6.10;99.90;;;;;;5032850;28;20021;-70
2023/01/15 10:49:29;;;;;;;2.05;0.40;;;6.00;99.90;;;;;;5032435;28;20026;-71
2023/01/15 10:52:06;;;;;;;0.30;0.20;;;6.10;99.90;;;;;;5032227;28;20112;-70
2023/01/15 10:54:47;;;;;;;1.40;0.30;;;6.10;99.90;;;;;;5032918;28;20037;-70
2023/01/15 10:57:40;;;;;;;0.25;0.10;;;6.10;99.90;;;;;;5032799;28;20089;-70
2023/01/15 11:00:08;;;;;;;0.47;0.13;;;6.10;99.90;;;;;;5024891;28;20033;-71
2023/01/15 11:02:42;;;;;;;0.65;0.30;;;6.10;99.90;;;;;;5032450;28;20503;-72
2023/01/15 11:05:14;;;;;;;0.30;0.10;;;6.10;99.90;;;;;;5033301;28;20051;-70
2023/01/15 11:07:43;;;;;;;0.22;0.20;;;6.10;99.90;;;;;;5032226;28;20030;-70
2023/01/15 11:10:13;;;;;;;1.45;0.20;;;6.10;99.90;;;;;;5032985;28;20032;-69
2023/01/15 11:21:20;;;;;;;1.00;0.13;;;6.30;99.90;;;;;;5043997;28;20080;-70
2023/01/15 11:23:47;;;;;;;1.27;0.20;;;6.40;99.90;;;;;;5052114;28;20031;-70
2023/01/15 11:26:28;;;;;;;1.70;0.50;;;6.30;99.90;;;;;;5053090;28;20053;-69
2023/01/15 11:28:55;;;;;;;0.20;0.17;;;6.40;99.90;;;;;;5051902;28;20021;-69
2023/01/15 11:31:21;;;;;;;2.13;0.30;;;6.50;99.90;;;;;;5051497;28;20032;-69
2023/01/15 11:34:01;;;;;;;2.28;0.22;;;6.50;99.90;;;;;;5053421;28;20033;-70
2023/01/15 11:36:28;;;;;;;1.65;0.28;;;6.60;99.90;;;;;;5051858;28;20036;-70
2023/01/15 11:38:54;;;;;;;1.27;0.82;;;6.50;99.90;;;;;;5052046;28;20115;-70
2023/01/15 11:52:49;;;;;;;2.83;0.30;;;6.30;99.90;;;;;;5056407;28;19950;-69
2023/01/15 11:55:20;;;;;;;6.22;0.88;;;6.30;99.90;;;;;;5056358;28;20020;-69
2023/01/15 11:57:46;;;;;;;2.03;0.43;;;6.20;99.90;;;;;;5055773;28;20028;-69
2023/01/15 12:00:21;;;;;;;1.98;0.35;;;6.20;99.90;;;;;;5055304;28;20096;-69
2023/01/15 12:02:51;;;;;;;1.10;0.25;;;6.30;99.90;;;;;;5056201;28;20032;-69
2023/01/15 12:05:29;;;;;;;6.05;1.08;;;6.30;99.90;;;;;;5056116;28;20052;-69
2023/01/15 12:08:00;;;;;;;6.40;0.60;;;6.40;99.90;;;;;;5055045;28;20062;-69
2023/01/15 12:13:50;;;;;;;4.07;0.75;;;6.40;99.90;;;;;;5035992;28;20100;-68
2023/01/15 12:16:30;;;;;;;2.15;0.28;;;6.50;99.90;;;;;;5026594;28;20116;-68
2023/01/15 12:18:58;;;;;;;7.40;0.68;;;6.70;99.90;;;;;;5051086;28;20030;-68
2023/01/15 12:21:51;;;;;;;0.47;0.13;;;6.80;99.90;;;;;;5034497;28;20472;-68
2023/01/15 12:24:44;;;;;;;2.85;0.70;;;6.90;99.90;;;;;;5035914;28;20057;-68
2023/01/15 12:27:35;;;;;;;4.35;0.70;;;7.00;99.90;;;;;;5034514;28;20025;-68
2023/01/15 12:30:36;;;;;;;6.90;0.60;;;7.00;99.90;;;;;;5034377;28;20022;-68
2023/01/15 12:33:18;;;;;;;1.17;0.82;;;7.10;99.90;;;;;;5035011;28;20018;-68
2023/01/15 12:35:55;;;;;;;1.63;0.70;;;7.30;99.90;;;;;;5035221;28;20029;-68
2023/01/15 12:38:33;;;;;;;2.97;0.35;;;7.60;99.90;;;;;;5035661;28;20075;-68
2023/01/15 12:41:10;;;;;;;1.83;0.45;;;7.80;99.90;;;;;;5034216;28;20053;-68
2023/01/15 12:46:29;;;;;;;2.10;0.52;;;8.00;99.90;;;;;;5014805;28;20121;-68
2023/01/15 12:49:20;;;;;;;0.95;0.40;;;8.00;99.90;;;;;;5034276;28;20048;-68
2023/01/15 12:51:53;;;;;;;5.50;0.40;;;7.80;99.90;;;;;;5032917;28;20067;-68
2023/01/15 12:54:27;;;;;;;3.33;0.90;;;7.70;99.90;;;;;;5034833;28;20029;-68
2023/01/15 12:57:29;;;;;;;2.95;0.43;;;7.60;99.90;;;;;;5050539;28;20036;-68
2023/01/15 13:00:35;;;;;;;4.32;0.63;;;7.60;99.90;;;;;;5034396;28;20033;-69
2023/01/15 13:03:19;;;;;;;1.40;0.30;;;7.50;99.90;;;;;;5034127;28;20022;-69
2023/01/15 13:05:49;;;;;;;1.92;0.55;;;7.50;99.90;;;;;;5035355;28;20021;-69
2023/01/15 13:08:35;;;;;;;0.60;0.47;;;7.40;99.90;;;;;;5033726;28;20030;-69
2023/01/15 13:11:01;;;;;;;4.35;0.40;;;7.40;99.90;;;;;;5035601;28;20044;-69
2023/01/15 13:13:36;;;;;;;4.07;0.60;;;7.30;99.90;;;;;;5034508;28;20124;-69
2023/01/15 13:16:24;;;;;;;4.40;1.35;;;7.40;99.90;;;;;;5035140;28;20024;-69
2023/01/15 13:19:00;;;;;;;7.47;1.30;;;7.40;99.90;;;;;;5034158;28;20025;-69
2023/01/15 13:21:29;;;;;;;2.85;0.70;;;7.50;99.90;;;;;;5033452;28;20033;-69
2023/01/15 13:24:27;;;;;;;1.60;0.40;;;7.70;99.90;;;;;;5033409;28;20029;-69
2023/01/15 13:27:16;;;;;;;4.22;0.68;;;7.80;99.90;;;;;;5050135;28;20025;-69
2023/01/15 13:30:01;;;;;;;4.53;1.00;;;8.10;99.90;;;;;;5034673;28;20028;-69
2023/01/15 13:32:55;;;;;;;4.13;0.57;;;8.20;99.90;;;;;;5034858;28;20535;-68
2023/01/15 13:35:34;;;;;;;3.05;0.70;;;8.30;99.90;;;;;;5033305;28;20032;-68
2023/01/15 13:38:03;;;;;;;2.25;0.98;;;8.40;99.90;;;;;;5034541;28;20044;-68
2023/01/15 13:40:49;;;;;;;4.22;0.52;;;8.30;99.90;;;;;;5034342;28;20360;-68
2023/01/15 13:43:33;;;;;;;0.65;0.30;;;8.10;99.90;;;;;;5033849;28;20108;-68
2023/01/15 13:45:59;;;;;;;3.15;0.60;;;8.00;99.90;;;;;;5032967;28;20025;-68
2023/01/15 13:48:47;;;;;;;1.60;0.57;;;7.90;99.90;;;;;;5034210;28;20028;-68
2023/01/15 13:51:41;;;;;;;2.35;0.45;;;7.90;99.90;;;;;;5033364;28;20427;-68
2023/01/15 13:54:15;;;;;;;0.98;0.25;;;7.80;99.90;;;;;;5034517;28;20392;-68
2023/01/15 13:56:40;;;;;;;3.22;0.40;;;7.70;99.90;;;;;;5033028;28;20025;-68
2023/01/15 13:59:44;;;;;;;4.00;0.40;;;7.60;99.90;;;;;;5049687;28;20029;-68
2023/01/15 14:02:22;;;;;;;3.10;0.43;;;7.70;99.90;;;;;;5033586;28;20032;-68
2023/01/15 14:04:48;;;;;;;1.52;0.40;;;7.60;99.90;;;;;;5032297;28;20472;-68
2023/01/15 14:07:30;;;;;;;1.13;0.28;;;7.50;99.90;;;;;;5032520;28;20024;-68
2023/01/15 14:10:22;;;;;;;1.50;0.30;;;7.40;99.90;;;;;;5032561;28;20029;-68
2023/01/15 14:13:03;;;;;;;3.72;0.40;;;7.40;99.90;;;;;;5032814;28;20529;-68